sensor_id;sensor_type;location;lat;lon;timestamp;P1;durP1;ratioP1;P2;durP2;ratioP2
46755;SDS011;32506;52.826;-1.192;2023-05-10T00:00:32;5.50;;;2.05;;
46755;SDS011;32506;52.826;-1.192;2023-05-10T00:02:58;7.28;;;1.77;;
46755;SDS011;32506;52.826;-1.192;2023-05-10T00:05:24;6.53;;;1.48;;
46755;SDS011;32506;52.826;-1.192;2023-05-10T00:07:49;7.05;;;1.80;;
46755;SDS011;32506;52.826;-1.192;2023-05-10T00:10:15;8.48;;;1.60;;
46755;SDS011;32506;52.826;-1.192;2023-05-10T00:12:40;6.78;;;1.65;;
46755;SDS011;32506;52.826;-1.192;2023-05-10T00:15:07;3.97;;;1.63;;
46755;SDS011;32506;52.826;-1.192;2023-05-10T00:17:33;5.97;;;1.92;;
46755;SDS011;32506;52.826;-1.192;2023-05-10T00:19:58;6.80;;;2.10;;
46755;SDS011;32506;52.826;-1.192;2023-05-10T00:22:24;6.70;;;2.15;;
46755;SDS011;32506;52.826;-1.192;2023-05-10T00:24:49;5.68;;;1.75;;
46755;SDS011;32506;52.826;-1.192;2023-05-10T00:27:15;10.30;;;2.45;;
46755;SDS011;32506;52.826;-1.192;2023-05-10T00:29:40;4.45;;;1.45;;
46755;SDS011;32506;52.826;-1.192;2023-05-10T00:32:05;5.60;;;2.22;;
46755;SDS011;32506;52.826;-1.192;2023-05-10T00:34:31;4.75;;;1.65;;
46755;SDS011;32506;52.826;-1.192;2023-05-10T00:36:56;5.68;;;1.90;;
46755;SDS011;32506;52.826;-1.192;2023-05-10T00:39:22;5.80;;;2.10;;
46755;SDS011;32506;52.826;-1.192;2023-05-10T00:41:47;6.13;;;1.67;;
46755;SDS011;32506;52.826;-1.192;2023-05-10T00:44:13;4.95;;;1.75;;
46755;SDS011;32506;52.826;-1.192;2023-05-10T00:46:39;6.63;;;1.40;;
46755;SDS011;32506;52.826;-1.192;2023-05-10T00:49:05;6.10;;;1.52;;
46755;SDS011;32506;52.826;-1.192;2023-05-10T00:51:32;5.30;;;1.67;;
46755;SDS011;32506;52.826;-1.192;2023-05-10T00:53:58;4.22;;;1.58;;
46755;SDS011;32506;52.826;-1.192;2023-05-10T00:56:24;5.47;;;2.45;;
46755;SDS011;32506;52.826;-1.192;2023-05-10T00:58:50;7.10;;;1.73;;
46755;SDS011;32506;52.826;-1.192;2023-05-10T01:01:17;6.15;;;1.80;;
46755;SDS011;32506;52.826;-1.192;2023-05-10T01:03:42;6.30;;;1.75;;
46755;SDS011;32506;52.826;-1.192;2023-05-10T01:06:09;5.45;;;1.65;;
46755;SDS011;32506;52.826;-1.192;2023-05-10T01:08:35;10.25;;;1.90;;
46755;SDS011;32506;52.826;-1.192;2023-05-10T01:11:01;8.38;;;1.85;;
46755;SDS011;32506;52.826;-1.192;2023-05-10T01:15:57;6.55;;;1.70;;
46755;SDS011;32506;52.826;-1.192;2023-05-10T01:18:23;4.20;;;1.48;;
46755;SDS011;32506;52.826;-1.192;2023-05-10T01:20:55;5.32;;;1.60;;
46755;SDS011;32506;52.826;-1.192;2023-05-10T01:34:27;7.35;;;2.05;;
46755;SDS011;32506;52.826;-1.192;2023-05-10T01:37:10;6.22;;;1.60;;
46755;SDS011;32506;52.826;-1.192;2023-05-10T01:42:36;4.55;;;1.30;;
46755;SDS011;32506;52.826;-1.192;2023-05-10T01:45:14;7.63;;;2.78;;
46755;SDS011;32506;52.826;-1.192;2023-05-10T01:48:02;4.70;;;2.22;;
46755;SDS011;32506;52.826;-1.192;2023-05-10T01:50:31;8.50;;;1.90;;
46755;SDS011;32506;52.826;-1.192;2023-05-10T01:52:59;6.93;;;1.73;;
46755;SDS011;32506;52.826;-1.192;2023-05-10T01:55:28;6.75;;;2.20;;
46755;SDS011;32506;52.826;-1.192;2023-05-10T01:58:04;5.20;;;1.67;;
46755;SDS011;32506;52.826;-1.192;2023-05-10T02:00:33;5.95;;;1.70;;
46755;SDS011;32506;52.826;-1.192;2023-05-10T02:03:00;5.75;;;1.67;;
46755;SDS011;32506;52.826;-1.192;2023-05-10T02:05:33;6.53;;;1.83;;
46755;SDS011;32506;52.826;-1.192;2023-05-10T02:08:00;7.30;;;1.77;;
46755;SDS011;32506;52.826;-1.192;2023-05-10T02:10:28;5.47;;;2.10;;
46755;SDS011;32506;52.826;-1.192;2023-05-10T02:12:54;6.00;;;1.65;;
46755;SDS011;32506;52.826;-1.192;2023-05-10T02:15:23;5.57;;;1.80;;
46755;SDS011;32506;52.826;-1.192;2023-05-10T02:17:51;6.18;;;2.15;;
46755;SDS011;32506;52.826;-1.192;2023-05-10T02:20:19;5.25;;;1.80;;
46755;SDS011;32506;52.826;-1.192;2023-05-10T02:22:47;6.03;;;1.67;;
46755;SDS011;32506;52.826;-1.192;2023-05-10T02:25:15;8.73;;;1.75;;
46755;SDS011;32506;52.826;-1.192;2023-05-10T02:27:44;4.15;;;1.50;;
46755;SDS011;32506;52.826;-1.192;2023-05-10T02:30:11;7.43;;;2.00;;
46755;SDS011;32506;52.826;-1.192;2023-05-10T02:32:37;5.22;;;1.58;;
46755;SDS011;32506;52.826;-1.192;2023-05-10T02:35:04;8.40;;;1.85;;
46755;SDS011;32506;52.826;-1.192;2023-05-10T02:37:31;5.68;;;1.85;;
46755;SDS011;32506;52.826;-1.192;2023-05-10T02:39:58;7.68;;;2.08;;
46755;SDS011;32506;52.826;-1.192;2023-05-10T02:42:24;6.65;;;1.90;;
46755;SDS011;32506;52.826;-1.192;2023-05-10T02:44:52;7.07;;;2.03;;
46755;SDS011;32506;52.826;-1.192;2023-05-10T02:47:26;5.32;;;1.75;;
46755;SDS011;32506;52.826;-1.192;2023-05-10T02:49:52;5.75;;;1.50;;
46755;SDS011;32506;52.826;-1.192;2023-05-10T02:52:21;4.90;;;1.63;;
46755;SDS011;32506;52.826;-1.192;2023-05-10T02:54:50;6.63;;;2.08;;
46755;SDS011;32506;52.826;-1.192;2023-05-10T02:57:22;4.22;;;1.52;;
46755;SDS011;32506;52.826;-1.192;2023-05-10T02:59:52;5.60;;;1.92;;
46755;SDS011;32506;52.826;-1.192;2023-05-10T03:02:18;6.15;;;2.03;;
46755;SDS011;32506;52.826;-1.192;2023-05-10T03:04:43;5.25;;;2.03;;
46755;SDS011;32506;52.826;-1.192;2023-05-10T03:07:09;7.30;;;1.85;;
46755;SDS011;32506;52.826;-1.192;2023-05-10T03:09:35;6.60;;;1.80;;
46755;SDS011;32506;52.826;-1.192;2023-05-10T03:20:08;9.75;;;2.10;;
46755;SDS011;32506;52.826;-1.192;2023-05-10T03:22:47;7.15;;;1.80;;
46755;SDS011;32506;52.826;-1.192;2023-05-10T03:25:16;6.35;;;1.90;;
46755;SDS011;32506;52.826;-1.192;2023-05-10T03:27:45;6.00;;;1.85;;
46755;SDS011;32506;52.826;-1.192;2023-05-10T03:30:12;5.15;;;1.73;;
46755;SDS011;32506;52.826;-1.192;2023-05-10T03:32:38;6.25;;;1.70;;
46755;SDS011;32506;52.826;-1.192;2023-05-10T03:35:11;6.63;;;1.63;;
46755;SDS011;32506;52.826;-1.192;2023-05-10T03:37:38;4.95;;;2.15;;
46755;SDS011;32506;52.826;-1.192;2023-05-10T03:40:04;8.32;;;2.17;;
46755;SDS011;32506;52.826;-1.192;2023-05-10T03:42:30;7.28;;;2.15;;
46755;SDS011;32506;52.826;-1.192;2023-05-10T03:44:56;6.18;;;2.67;;
46755;SDS011;32506;52.826;-1.192;2023-05-10T03:47:21;6.57;;;2.17;;
46755;SDS011;32506;52.826;-1.192;2023-05-10T03:49:47;7.25;;;2.10;;
46755;SDS011;32506;52.826;-1.192;2023-05-10T03:52:12;6.05;;;1.77;;
46755;SDS011;32506;52.826;-1.192;2023-05-10T03:54:38;5.47;;;2.13;;
46755;SDS011;32506;52.826;-1.192;2023-05-10T03:57:03;6.70;;;2.30;;
46755;SDS011;32506;52.826;-1.192;2023-05-10T03:59:29;8.88;;;2.70;;
46755;SDS011;32506;52.826;-1.192;2023-05-10T04:01:55;12.27;;;3.50;;
46755;SDS011;32506;52.826;-1.192;2023-05-10T04:04:20;9.65;;;3.40;;
46755;SDS011;32506;52.826;-1.192;2023-05-10T04:06:47;7.78;;;2.40;;
46755;SDS011;32506;52.826;-1.192;2023-05-10T04:09:12;7.03;;;2.70;;
46755;SDS011;32506;52.826;-1.192;2023-05-10T04:11:38;12.55;;;2.78;;
46755;SDS011;32506;52.826;-1.192;2023-05-10T04:14:04;6.55;;;2.90;;
46755;SDS011;32506;52.826;-1.192;2023-05-10T04:16:29;10.23;;;2.88;;
46755;SDS011;32506;52.826;-1.192;2023-05-10T04:18:54;10.60;;;3.03;;
46755;SDS011;32506;52.826;-1.192;2023-05-10T04:21:20;7.63;;;2.58;;
46755;SDS011;32506;52.826;-1.192;2023-05-10T04:23:45;10.50;;;2.80;;
46755;SDS011;32506;52.826;-1.192;2023-05-10T04:26:11;6.45;;;2.22;;
46755;SDS011;32506;52.826;-1.192;2023-05-10T04:28:37;8.63;;;2.95;;
46755;SDS011;32506;52.826;-1.192;2023-05-10T04:31:06;9.10;;;3.45;;
46755;SDS011;32506;52.826;-1.192;2023-05-10T04:33:33;8.05;;;2.35;;
46755;SDS011;32506;52.826;-1.192;2023-05-10T04:35:59;11.02;;;2.95;;
46755;SDS011;32506;52.826;-1.192;2023-05-10T04:38:25;6.57;;;2.47;;
46755;SDS011;32506;52.826;-1.192;2023-05-10T04:40:51;9.38;;;3.35;;
46755;SDS011;32506;52.826;-1.192;2023-05-10T04:43:17;8.55;;;3.03;;
46755;SDS011;32506;52.826;-1.192;2023-05-10T04:45:43;8.25;;;2.80;;
46755;SDS011;32506;52.826;-1.192;2023-05-10T04:48:08;8.73;;;3.03;;
46755;SDS011;32506;52.826;-1.192;2023-05-10T04:50:34;8.10;;;3.22;;
46755;SDS011;32506;52.826;-1.192;2023-05-10T04:52:59;10.95;;;2.42;;
46755;SDS011;32506;52.826;-1.192;2023-05-10T04:55:25;11.00;;;2.45;;
46755;SDS011;32506;52.826;-1.192;2023-05-10T04:57:52;11.35;;;3.10;;
46755;SDS011;32506;52.826;-1.192;2023-05-10T05:00:18;6.80;;;2.17;;
46755;SDS011;32506;52.826;-1.192;2023-05-10T05:02:44;6.65;;;2.17;;
46755;SDS011;32506;52.826;-1.192;2023-05-10T05:05:13;7.72;;;3.10;;
46755;SDS011;32506;52.826;-1.192;2023-05-10T05:07:38;6.70;;;2.40;;
46755;SDS011;32506;52.826;-1.192;2023-05-10T05:10:07;7.30;;;1.90;;
46755;SDS011;32506;52.826;-1.192;2023-05-10T05:12:33;5.97;;;2.08;;
46755;SDS011;32506;52.826;-1.192;2023-05-10T05:14:59;6.97;;;2.33;;
46755;SDS011;32506;52.826;-1.192;2023-05-10T05:17:25;6.05;;;2.38;;
46755;SDS011;32506;52.826;-1.192;2023-05-10T05:19:50;6.60;;;2.30;;
46755;SDS011;32506;52.826;-1.192;2023-05-10T05:22:16;6.70;;;2.00;;
46755;SDS011;32506;52.826;-1.192;2023-05-10T05:24:41;5.93;;;2.15;;
46755;SDS011;32506;52.826;-1.192;2023-05-10T05:27:07;6.20;;;2.50;;
46755;SDS011;32506;52.826;-1.192;2023-05-10T05:29:32;6.57;;;2.38;;
46755;SDS011;32506;52.826;-1.192;2023-05-10T05:31:58;4.32;;;1.63;;
46755;SDS011;32506;52.826;-1.192;2023-05-10T05:34:23;6.65;;;2.22;;
46755;SDS011;32506;52.826;-1.192;2023-05-10T05:36:49;5.75;;;1.88;;
46755;SDS011;32506;52.826;-1.192;2023-05-10T05:39:15;5.20;;;1.90;;
46755;SDS011;32506;52.826;-1.192;2023-05-10T05:41:41;3.70;;;1.90;;
46755;SDS011;32506;52.826;-1.192;2023-05-10T05:44:07;4.43;;;1.85;;
46755;SDS011;32506;52.826;-1.192;2023-05-10T05:46:32;6.20;;;2.40;;
46755;SDS011;32506;52.826;-1.192;2023-05-10T05:48:58;5.25;;;1.65;;
46755;SDS011;32506;52.826;-1.192;2023-05-10T05:51:23;6.90;;;2.17;;
46755;SDS011;32506;52.826;-1.192;2023-05-10T05:53:49;5.07;;;1.77;;
46755;SDS011;32506;52.826;-1.192;2023-05-10T05:56:14;6.68;;;1.98;;
46755;SDS011;32506;52.826;-1.192;2023-05-10T05:58:40;5.10;;;1.60;;
46755;SDS011;32506;52.826;-1.192;2023-05-10T06:01:05;6.65;;;1.65;;
46755;SDS011;32506;52.826;-1.192;2023-05-10T06:03:31;5.55;;;2.17;;
46755;SDS011;32506;52.826;-1.192;2023-05-10T06:05:57;4.80;;;1.65;;
46755;SDS011;32506;52.826;-1.192;2023-05-10T06:08:23;7.30;;;2.00;;
46755;SDS011;32506;52.826;-1.192;2023-05-10T06:10:48;4.95;;;1.85;;
46755;SDS011;32506;52.826;-1.192;2023-05-10T06:13:13;5.65;;;1.50;;
46755;SDS011;32506;52.826;-1.192;2023-05-10T06:15:39;5.00;;;1.70;;
46755;SDS011;32506;52.826;-1.192;2023-05-10T06:18:05;4.82;;;1.90;;
46755;SDS011;32506;52.826;-1.192;2023-05-10T06:20:31;6.13;;;1.73;;
46755;SDS011;32506;52.826;-1.192;2023-05-10T06:22:56;7.10;;;2.03;;
46755;SDS011;32506;52.826;-1.192;2023-05-10T06:25:22;5.82;;;1.85;;
46755;SDS011;32506;52.826;-1.192;2023-05-10T06:27:48;5.50;;;2.03;;
46755;SDS011;32506;52.826;-1.192;2023-05-10T06:30:14;4.38;;;1.88;;
46755;SDS011;32506;52.826;-1.192;2023-05-10T06:32:40;5.30;;;1.85;;
46755;SDS011;32506;52.826;-1.192;2023-05-10T06:35:06;5.72;;;1.65;;
46755;SDS011;32506;52.826;-1.192;2023-05-10T06:37:32;2.92;;;1.33;;
46755;SDS011;32506;52.826;-1.192;2023-05-10T06:39:59;4.28;;;1.15;;
46755;SDS011;32506;52.826;-1.192;2023-05-10T06:42:24;3.75;;;1.33;;
46755;SDS011;32506;52.826;-1.192;2023-05-10T06:44:50;3.17;;;1.13;;
46755;SDS011;32506;52.826;-1.192;2023-05-10T06:47:16;4.43;;;1.30;;
46755;SDS011;32506;52.826;-1.192;2023-05-10T06:49:42;4.95;;;1.55;;
46755;SDS011;32506;52.826;-1.192;2023-05-10T06:52:07;5.22;;;2.33;;
46755;SDS011;32506;52.826;-1.192;2023-05-10T06:54:33;3.45;;;1.52;;
46755;SDS011;32506;52.826;-1.192;2023-05-10T06:56:58;2.60;;;0.82;;
46755;SDS011;32506;52.826;-1.192;2023-05-10T06:59:23;3.40;;;1.20;;
46755;SDS011;32506;52.826;-1.192;2023-05-10T07:01:49;3.25;;;0.98;;
46755;SDS011;32506;52.826;-1.192;2023-05-10T07:04:14;4.40;;;1.25;;
46755;SDS011;32506;52.826;-1.192;2023-05-10T07:06:40;4.80;;;1.70;;
46755;SDS011;32506;52.826;-1.192;2023-05-10T07:09:05;4.45;;;1.33;;
46755;SDS011;32506;52.826;-1.192;2023-05-10T07:11:32;4.43;;;1.60;;
46755;SDS011;32506;52.826;-1.192;2023-05-10T07:13:58;2.50;;;1.10;;
46755;SDS011;32506;52.826;-1.192;2023-05-10T07:16:23;6.30;;;1.30;;
46755;SDS011;32506;52.826;-1.192;2023-05-10T07:18:48;3.05;;;1.00;;
46755;SDS011;32506;52.826;-1.192;2023-05-10T07:21:15;6.57;;;2.42;;
46755;SDS011;32506;52.826;-1.192;2023-05-10T07:23:41;4.15;;;1.25;;
46755;SDS011;32506;52.826;-1.192;2023-05-10T07:26:06;3.95;;;1.40;;
46755;SDS011;32506;52.826;-1.192;2023-05-10T07:28:32;4.15;;;1.40;;
46755;SDS011;32506;52.826;-1.192;2023-05-10T07:30:57;5.35;;;1.45;;
46755;SDS011;32506;52.826;-1.192;2023-05-10T07:33:23;4.88;;;1.35;;
46755;SDS011;32506;52.826;-1.192;2023-05-10T07:35:49;4.35;;;1.50;;
46755;SDS011;32506;52.826;-1.192;2023-05-10T07:38:15;3.40;;;1.40;;
46755;SDS011;32506;52.826;-1.192;2023-05-10T07:40:40;5.93;;;1.63;;
46755;SDS011;32506;52.826;-1.192;2023-05-10T07:43:06;3.15;;;1.30;;
46755;SDS011;32506;52.826;-1.192;2023-05-10T07:45:31;4.18;;;1.38;;
46755;SDS011;32506;52.826;-1.192;2023-05-10T07:47:57;5.57;;;1.65;;
46755;SDS011;32506;52.826;-1.192;2023-05-10T07:50:23;6.53;;;1.52;;
46755;SDS011;32506;52.826;-1.192;2023-05-10T07:52:48;5.90;;;1.73;;
46755;SDS011;32506;52.826;-1.192;2023-05-10T07:55:13;5.70;;;1.88;;
46755;SDS011;32506;52.826;-1.192;2023-05-10T07:57:39;7.07;;;1.77;;
46755;SDS011;32506;52.826;-1.192;2023-05-10T08:00:05;3.92;;;1.42;;
46755;SDS011;32506;52.826;-1.192;2023-05-10T08:02:32;4.35;;;1.55;;
46755;SDS011;32506;52.826;-1.192;2023-05-10T08:05:00;6.68;;;1.65;;
46755;SDS011;32506;52.826;-1.192;2023-05-10T08:07:25;8.38;;;2.35;;
46755;SDS011;32506;52.826;-1.192;2023-05-10T08:09:51;8.35;;;1.60;;
46755;SDS011;32506;52.826;-1.192;2023-05-10T08:12:16;5.93;;;1.70;;
46755;SDS011;32506;52.826;-1.192;2023-05-10T08:14:42;4.68;;;1.98;;
46755;SDS011;32506;52.826;-1.192;2023-05-10T08:17:07;3.92;;;1.45;;
46755;SDS011;32506;52.826;-1.192;2023-05-10T08:19:33;5.50;;;1.75;;
46755;SDS011;32506;52.826;-1.192;2023-05-10T08:21:58;6.72;;;1.60;;
46755;SDS011;32506;52.826;-1.192;2023-05-10T08:24:24;6.75;;;2.05;;
46755;SDS011;32506;52.826;-1.192;2023-05-10T08:26:49;5.07;;;1.80;;
46755;SDS011;32506;52.826;-1.192;2023-05-10T08:29:15;5.70;;;1.60;;
46755;SDS011;32506;52.826;-1.192;2023-05-10T08:31:40;3.95;;;1.75;;
46755;SDS011;32506;52.826;-1.192;2023-05-10T08:34:06;7.53;;;1.80;;
46755;SDS011;32506;52.826;-1.192;2023-05-10T08:36:31;6.95;;;1.48;;
46755;SDS011;32506;52.826;-1.192;2023-05-10T08:38:57;6.70;;;1.70;;
46755;SDS011;32506;52.826;-1.192;2023-05-10T08:41:23;8.10;;;1.77;;
46755;SDS011;32506;52.826;-1.192;2023-05-10T08:43:51;5.30;;;1.38;;
46755;SDS011;32506;52.826;-1.192;2023-05-10T08:46:18;7.40;;;1.20;;
46755;SDS011;32506;52.826;-1.192;2023-05-10T08:48:45;5.20;;;1.65;;
46755;SDS011;32506;52.826;-1.192;2023-05-10T08:51:13;5.38;;;1.50;;
46755;SDS011;32506;52.826;-1.192;2023-05-10T08:53:40;5.35;;;1.40;;
46755;SDS011;32506;52.826;-1.192;2023-05-10T08:56:06;5.95;;;1.33;;
46755;SDS011;32506;52.826;-1.192;2023-05-10T08:58:32;5.38;;;1.48;;
46755;SDS011;32506;52.826;-1.192;2023-05-10T09:00:57;4.70;;;1.35;;
46755;SDS011;32506;52.826;-1.192;2023-05-10T09:03:24;4.25;;;1.20;;
46755;SDS011;32506;52.826;-1.192;2023-05-10T09:05:50;6.57;;;1.63;;
46755;SDS011;32506;52.826;-1.192;2023-05-10T09:08:15;4.43;;;1.13;;
46755;SDS011;32506;52.826;-1.192;2023-05-10T09:10:45;7.00;;;1.52;;
46755;SDS011;32506;52.826;-1.192;2023-05-10T09:13:13;7.43;;;1.58;;
46755;SDS011;32506;52.826;-1.192;2023-05-10T09:15:43;7.03;;;1.38;;
46755;SDS011;32506;52.826;-1.192;2023-05-10T09:18:09;5.47;;;1.20;;
46755;SDS011;32506;52.826;-1.192;2023-05-10T09:20:35;6.13;;;1.42;;
46755;SDS011;32506;52.826;-1.192;2023-05-10T09:23:00;3.53;;;1.00;;
46755;SDS011;32506;52.826;-1.192;2023-05-10T09:25:25;4.45;;;1.10;;
46755;SDS011;32506;52.826;-1.192;2023-05-10T09:27:52;5.68;;;1.15;;
46755;SDS011;32506;52.826;-1.192;2023-05-10T09:30:28;2.45;;;0.88;;
46755;SDS011;32506;52.826;-1.192;2023-05-10T09:32:55;2.83;;;0.80;;
46755;SDS011;32506;52.826;-1.192;2023-05-10T09:35:23;3.90;;;0.80;;
46755;SDS011;32506;52.826;-1.192;2023-05-10T09:37:50;5.07;;;1.00;;
46755;SDS011;32506;52.826;-1.192;2023-05-10T09:40:25;5.07;;;1.30;;
46755;SDS011;32506;52.826;-1.192;2023-05-10T09:42:53;2.92;;;0.77;;
46755;SDS011;32506;52.826;-1.192;2023-05-10T09:45:38;2.58;;;0.85;;
46755;SDS011;32506;52.826;-1.192;2023-05-10T09:48:06;4.47;;;1.20;;
46755;SDS011;32506;52.826;-1.192;2023-05-10T09:50:31;5.97;;;2.00;;
46755;SDS011;32506;52.826;-1.192;2023-05-10T09:52:57;6.28;;;1.30;;
46755;SDS011;32506;52.826;-1.192;2023-05-10T09:55:41;3.70;;;0.93;;
46755;SDS011;32506;52.826;-1.192;2023-05-10T09:58:12;5.15;;;1.98;;
46755;SDS011;32506;52.826;-1.192;2023-05-10T10:00:41;3.53;;;0.85;;
46755;SDS011;32506;52.826;-1.192;2023-05-10T10:03:12;5.18;;;0.70;;
46755;SDS011;32506;52.826;-1.192;2023-05-10T10:05:42;4.68;;;1.02;;
46755;SDS011;32506;52.826;-1.192;2023-05-10T10:08:08;3.42;;;0.90;;
46755;SDS011;32506;52.826;-1.192;2023-05-10T10:10:34;7.38;;;1.63;;
46755;SDS011;32506;52.826;-1.192;2023-05-10T10:13:01;6.53;;;0.90;;
46755;SDS011;32506;52.826;-1.192;2023-05-10T10:15:27;3.55;;;0.77;;
46755;SDS011;32506;52.826;-1.192;2023-05-10T10:17:52;3.42;;;0.98;;
46755;SDS011;32506;52.826;-1.192;2023-05-10T10:20:19;5.97;;;0.95;;
46755;SDS011;32506;52.826;-1.192;2023-05-10T10:22:46;2.88;;;0.73;;
46755;SDS011;32506;52.826;-1.192;2023-05-10T10:25:14;3.92;;;1.08;;
46755;SDS011;32506;52.826;-1.192;2023-05-10T10:27:43;4.75;;;0.93;;
46755;SDS011;32506;52.826;-1.192;2023-05-10T10:33:20;4.82;;;1.30;;
46755;SDS011;32506;52.826;-1.192;2023-05-10T10:36:07;3.05;;;0.60;;
46755;SDS011;32506;52.826;-1.192;2023-05-10T10:39:15;3.22;;;0.85;;
46755;SDS011;32506;52.826;-1.192;2023-05-10T10:46:58;2.55;;;0.60;;
46755;SDS011;32506;52.826;-1.192;2023-05-10T10:49:30;3.55;;;0.77;;
46755;SDS011;32506;52.826;-1.192;2023-05-10T10:54:40;3.33;;;1.00;;
46755;SDS011;32506;52.826;-1.192;2023-05-10T10:57:10;2.85;;;0.57;;
46755;SDS011;32506;52.826;-1.192;2023-05-10T10:59:41;1.65;;;0.60;;
46755;SDS011;32506;52.826;-1.192;2023-05-10T11:02:08;2.30;;;0.60;;
46755;SDS011;32506;52.826;-1.192;2023-05-10T11:04:42;3.40;;;0.75;;
46755;SDS011;32506;52.826;-1.192;2023-05-10T11:07:18;3.80;;;0.52;;
46755;SDS011;32506;52.826;-1.192;2023-05-10T11:09:45;3.50;;;1.00;;
46755;SDS011;32506;52.826;-1.192;2023-05-10T11:12:12;1.45;;;0.40;;
46755;SDS011;32506;52.826;-1.192;2023-05-10T11:14:37;1.63;;;0.80;;
46755;SDS011;32506;52.826;-1.192;2023-05-10T11:17:21;2.05;;;0.63;;
46755;SDS011;32506;52.826;-1.192;2023-05-10T11:20:10;2.60;;;0.52;;
46755;SDS011;32506;52.826;-1.192;2023-05-10T11:22:51;2.45;;;0.68;;
46755;SDS011;32506;52.826;-1.192;2023-05-10T11:25:18;1.75;;;0.68;;
46755;SDS011;32506;52.826;-1.192;2023-05-10T11:27:43;3.13;;;0.88;;
46755;SDS011;32506;52.826;-1.192;2023-05-10T11:30:10;2.38;;;0.50;;
46755;SDS011;32506;52.826;-1.192;2023-05-10T11:32:40;1.92;;;0.50;;
46755;SDS011;32506;52.826;-1.192;2023-05-10T11:35:09;5.05;;;0.82;;
46755;SDS011;32506;52.826;-1.192;2023-05-10T11:37:36;2.78;;;0.70;;
46755;SDS011;32506;52.826;-1.192;2023-05-10T11:40:03;2.63;;;0.77;;
46755;SDS011;32506;52.826;-1.192;2023-05-10T11:42:28;2.50;;;0.50;;
46755;SDS011;32506;52.826;-1.192;2023-05-10T11:44:55;1.63;;;0.40;;
46755;SDS011;32506;52.826;-1.192;2023-05-10T11:47:20;3.15;;;0.63;;
46755;SDS011;32506;52.826;-1.192;2023-05-10T11:49:47;4.10;;;0.57;;
46755;SDS011;32506;52.826;-1.192;2023-05-10T11:52:13;3.67;;;0.70;;
46755;SDS011;32506;52.826;-1.192;2023-05-10T11:54:45;1.50;;;0.52;;
46755;SDS011;32506;52.826;-1.192;2023-05-10T11:57:15;2.38;;;0.50;;
46755;SDS011;32506;52.826;-1.192;2023-05-10T11:59:42;2.65;;;0.60;;
46755;SDS011;32506;52.826;-1.192;2023-05-10T12:02:08;2.40;;;0.60;;
46755;SDS011;32506;52.826;-1.192;2023-05-10T12:04:33;3.35;;;0.65;;
46755;SDS011;32506;52.826;-1.192;2023-05-10T12:06:59;2.25;;;0.70;;
46755;SDS011;32506;52.826;-1.192;2023-05-10T12:09:25;2.90;;;0.60;;
46755;SDS011;32506;52.826;-1.192;2023-05-10T12:11:50;2.40;;;0.40;;
46755;SDS011;32506;52.826;-1.192;2023-05-10T12:14:21;2.72;;;0.63;;
46755;SDS011;32506;52.826;-1.192;2023-05-10T12:16:47;2.75;;;0.70;;
46755;SDS011;32506;52.826;-1.192;2023-05-10T12:19:13;3.00;;;0.60;;
46755;SDS011;32506;52.826;-1.192;2023-05-10T12:21:44;1.00;;;0.70;;
46755;SDS011;32506;52.826;-1.192;2023-05-10T12:24:10;2.72;;;0.80;;
46755;SDS011;32506;52.826;-1.192;2023-05-10T12:26:35;1.63;;;0.40;;
46755;SDS011;32506;52.826;-1.192;2023-05-10T12:29:19;2.45;;;0.45;;
46755;SDS011;32506;52.826;-1.192;2023-05-10T12:31:52;1.77;;;0.50;;
46755;SDS011;32506;52.826;-1.192;2023-05-10T12:34:37;2.35;;;0.40;;
46755;SDS011;32506;52.826;-1.192;2023-05-10T12:37:03;1.38;;;0.30;;
46755;SDS011;32506;52.826;-1.192;2023-05-10T12:39:39;1.35;;;0.40;;
46755;SDS011;32506;52.826;-1.192;2023-05-10T12:42:05;1.55;;;0.20;;
46755;SDS011;32506;52.826;-1.192;2023-05-10T12:44:31;1.20;;;0.30;;
46755;SDS011;32506;52.826;-1.192;2023-05-10T12:46:57;1.13;;;0.28;;
46755;SDS011;32506;52.826;-1.192;2023-05-10T12:49:22;1.25;;;0.30;;
46755;SDS011;32506;52.826;-1.192;2023-05-10T12:51:47;2.30;;;0.30;;
46755;SDS011;32506;52.826;-1.192;2023-05-10T12:54:13;1.77;;;0.50;;
46755;SDS011;32506;52.826;-1.192;2023-05-10T12:56:38;1.52;;;0.40;;
46755;SDS011;32506;52.826;-1.192;2023-05-10T12:59:05;1.85;;;0.40;;
46755;SDS011;32506;52.826;-1.192;2023-05-10T13:01:31;1.52;;;0.45;;
46755;SDS011;32506;52.826;-1.192;2023-05-10T13:03:56;1.35;;;0.65;;
46755;SDS011;32506;52.826;-1.192;2023-05-10T13:06:22;2.03;;;0.20;;
46755;SDS011;32506;52.826;-1.192;2023-05-10T13:08:47;1.98;;;0.30;;
46755;SDS011;32506;52.826;-1.192;2023-05-10T13:11:13;2.15;;;0.38;;
46755;SDS011;32506;52.826;-1.192;2023-05-10T13:13:41;1.33;;;0.20;;
46755;SDS011;32506;52.826;-1.192;2023-05-10T13:16:07;0.73;;;0.22;;
46755;SDS011;32506;52.826;-1.192;2023-05-10T13:18:32;1.35;;;0.35;;
46755;SDS011;32506;52.826;-1.192;2023-05-10T13:20:57;0.73;;;0.32;;
46755;SDS011;32506;52.826;-1.192;2023-05-10T13:23:23;1.00;;;0.20;;
46755;SDS011;32506;52.826;-1.192;2023-05-10T13:25:48;0.90;;;0.20;;
46755;SDS011;32506;52.826;-1.192;2023-05-10T13:28:14;2.35;;;0.50;;
46755;SDS011;32506;52.826;-1.192;2023-05-10T13:30:40;1.17;;;0.50;;
46755;SDS011;32506;52.826;-1.192;2023-05-10T13:33:05;2.17;;;0.40;;
46755;SDS011;32506;52.826;-1.192;2023-05-10T13:35:31;1.05;;;0.30;;
46755;SDS011;32506;52.826;-1.192;2023-05-10T13:37:56;1.58;;;0.40;;
46755;SDS011;32506;52.826;-1.192;2023-05-10T13:40:22;4.13;;;0.93;;
46755;SDS011;32506;52.826;-1.192;2023-05-10T13:42:49;3.30;;;0.50;;
46755;SDS011;32506;52.826;-1.192;2023-05-10T13:45:15;1.85;;;0.40;;
46755;SDS011;32506;52.826;-1.192;2023-05-10T13:47:41;2.15;;;0.20;;
46755;SDS011;32506;52.826;-1.192;2023-05-10T13:50:06;1.30;;;0.45;;
46755;SDS011;32506;52.826;-1.192;2023-05-10T13:52:32;2.30;;;0.35;;
46755;SDS011;32506;52.826;-1.192;2023-05-10T13:54:57;1.75;;;0.30;;
46755;SDS011;32506;52.826;-1.192;2023-05-10T13:57:23;2.42;;;0.43;;
46755;SDS011;32506;52.826;-1.192;2023-05-10T13:59:49;0.50;;;0.20;;
46755;SDS011;32506;52.826;-1.192;2023-05-10T14:02:14;0.75;;;0.15;;
46755;SDS011;32506;52.826;-1.192;2023-05-10T14:04:40;0.98;;;0.10;;
46755;SDS011;32506;52.826;-1.192;2023-05-10T14:07:05;2.30;;;0.20;;
46755;SDS011;32506;52.826;-1.192;2023-05-10T14:09:31;0.47;;;0.10;;
46755;SDS011;32506;52.826;-1.192;2023-05-10T14:11:56;0.40;;;0.20;;
46755;SDS011;32506;52.826;-1.192;2023-05-10T14:14:22;0.52;;;0.20;;
46755;SDS011;32506;52.826;-1.192;2023-05-10T14:16:48;0.50;;;0.10;;
46755;SDS011;32506;52.826;-1.192;2023-05-10T14:19:13;0.55;;;0.20;;
46755;SDS011;32506;52.826;-1.192;2023-05-10T14:21:39;0.60;;;0.10;;
46755;SDS011;32506;52.826;-1.192;2023-05-10T14:24:04;1.20;;;0.15;;
46755;SDS011;32506;52.826;-1.192;2023-05-10T14:26:31;0.38;;;0.20;;
46755;SDS011;32506;52.826;-1.192;2023-05-10T14:28:57;0.55;;;0.25;;
46755;SDS011;32506;52.826;-1.192;2023-05-10T14:31:22;1.98;;;0.10;;
46755;SDS011;32506;52.826;-1.192;2023-05-10T14:33:50;1.45;;;0.10;;
46755;SDS011;32506;52.826;-1.192;2023-05-10T14:36:15;0.85;;;0.10;;
46755;SDS011;32506;52.826;-1.192;2023-05-10T14:38:41;0.85;;;0.20;;
46755;SDS011;32506;52.826;-1.192;2023-05-10T14:41:06;1.00;;;0.10;;
46755;SDS011;32506;52.826;-1.192;2023-05-10T14:43:32;1.13;;;0.10;;
46755;SDS011;32506;52.826;-1.192;2023-05-10T14:45:57;0.50;;;0.10;;
46755;SDS011;32506;52.826;-1.192;2023-05-10T14:48:23;0.30;;;0.10;;
46755;SDS011;32506;52.826;-1.192;2023-05-10T14:50:48;1.42;;;0.50;;
46755;SDS011;32506;52.826;-1.192;2023-05-10T14:53:15;0.32;;;0.10;;
46755;SDS011;32506;52.826;-1.192;2023-05-10T14:55:40;0.45;;;0.20;;
46755;SDS011;32506;52.826;-1.192;2023-05-10T14:58:06;0.88;;;0.10;;
46755;SDS011;32506;52.826;-1.192;2023-05-10T15:00:31;1.38;;;0.10;;
46755;SDS011;32506;52.826;-1.192;2023-05-10T15:02:57;0.65;;;0.47;;
46755;SDS011;32506;52.826;-1.192;2023-05-10T15:05:22;0.80;;;0.10;;
46755;SDS011;32506;52.826;-1.192;2023-05-10T15:07:48;1.10;;;0.13;;